Time;durP1;ratioP1;P1;durP2;ratioP2;P2;SDS_P1;SDS_P2;PMS_P1;PMS_P2;Temp;Humidity;BMP_temperature;BMP_pressure;BME280_temperature;BME280_humidity;BME280_pressure;Samples;Min_cycle;Max_cycle;Signal;HPM_P1;HPM_P2
2024/01/13 00:04:23;;;;;;;;;;;16.60;56.00;;;;;;10278969;28;88975;-42
2024/01/13 00:09:24;;;;;;;;;;;16.60;56.10;;;;;;10269492;28;90041;-43
2024/01/13 00:14:26;;;;;;;;;;;16.60;56.00;;;;;;10275693;28;88619;-43
2024/01/13 00:19:28;;;;;;;;;;;16.60;56.00;;;;;;10273279;28;89876;-43
2024/01/13 00:24:30;;;;;;;;;;;16.50;55.90;;;;;;10281370;28;89755;-65
2024/01/13 00:29:32;;;;;;;;;;;16.50;56.00;;;;;;10271940;28;88499;-45
2024/01/13 00:34:34;;;;;;;;;;;16.50;55.90;;;;;;10286457;28;90282;-43
2024/01/13 00:39:36;;;;;;;;;;;16.50;56.00;;;;;;10295238;28;89074;-49
2024/01/13 00:44:38;;;;;;;;;;;16.50;56.00;;;;;;10264698;28;91062;-44
2024/01/13 00:49:40;;;;;;;;;;;16.50;55.90;;;;;;10292676;28;89907;-43
2024/01/13 00:54:43;;;;;;;;;;;16.60;55.60;;;;;;10275215;28;89210;-43
2024/01/13 00:59:45;;;;;;;;;;;16.70;55.40;;;;;;10289759;28;89316;-43
2024/01/13 01:04:46;;;;;;;;;;;16.70;55.20;;;;;;10291989;28;89609;-49
2024/01/13 01:09:48;;;;;;;;;;;16.70;55.10;;;;;;10292014;28;88874;-48
2024/01/13 01:14:50;;;;;;;;;;;16.70;55.00;;;;;;10301600;28;89998;-47
2024/01/13 01:19:52;;;;;;;;;;;16.60;55.10;;;;;;10289593;28;89391;-46
2024/01/13 01:24:54;;;;;;;;;;;16.60;54.90;;;;;;10289056;28;90081;-47
2024/01/13 01:29:56;;;;;;;;;;;16.50;54.90;;;;;;10270146;28;89413;-47
2024/01/13 01:34:58;;;;;;;;;;;16.50;55.00;;;;;;10286773;28;89211;-47
2024/01/13 01:40:00;;;;;;;;;;;16.50;55.10;;;;;;10283113;28;89812;-43
2024/01/13 01:45:02;;;;;;;;;;;16.40;55.00;;;;;;10285218;28;88309;-44
2024/01/13 01:50:04;;;;;;;;;;;16.40;55.20;;;;;;10288760;28;89999;-45
2024/01/13 01:55:07;;;;;;;;;;;16.30;55.10;;;;;;10273419;28;89014;-44
2024/01/13 02:00:09;;;;;;;;;;;16.30;55.10;;;;;;10281854;28;89107;-43
2024/01/13 02:05:11;;;;;;;;;;;16.30;55.10;;;;;;10630595;22;90454;-62
2024/01/13 02:10:13;;;;;;;;;;;16.40;55.20;;;;;;10278481;28;88662;-63
2024/01/13 02:15:15;;;;;;;;;;;16.40;54.90;;;;;;10288220;28;89329;-63
2024/01/13 02:20:17;;;;;;;;;;;16.50;54.80;;;;;;10282074;28;90054;-63
2024/01/13 02:25:19;;;;;;;;;;;16.50;54.70;;;;;;10289400;28;90755;-63
2024/01/13 02:30:21;;;;;;;;;;;16.50;54.60;;;;;;10255075;28;90080;-65
2024/01/13 02:35:23;;;;;;;;;;;16.50;54.60;;;;;;10283268;28;89286;-63
2024/01/13 02:40:25;;;;;;;;;;;16.40;54.60;;;;;;10290628;28;89501;-63
2024/01/13 02:45:27;;;;;;;;;;;16.30;54.60;;;;;;10281069;28;89012;-63
2024/01/13 02:50:29;;;;;;;;;;;16.30;54.70;;;;;;10288659;28;90239;-63
2024/01/13 02:55:31;;;;;;;;;;;16.40;54.80;;;;;;10277403;28;89985;-63
2024/01/13 03:00:32;;;;;;;;;;;16.50;54.60;;;;;;10278782;28;89418;-62
2024/01/13 03:05:34;;;;;;;;;;;16.50;54.40;;;;;;10277349;28;88441;-63
2024/01/13 03:10:36;;;;;;;;;;;16.50;54.30;;;;;;10286344;28;89024;-63
2024/01/13 03:15:39;;;;;;;;;;;16.50;54.30;;;;;;10282583;28;90247;-63
2024/01/13 03:20:40;;;;;;;;;;;16.50;54.30;;;;;;10282566;28;89108;-63
2024/01/13 03:25:42;;;;;;;;;;;16.40;54.30;;;;;;10293348;28;89981;-62
2024/01/13 03:30:44;;;;;;;;;;;16.40;54.40;;;;;;10292934;28;89961;-63
2024/01/13 03:35:46;;;;;;;;;;;16.30;54.40;;;;;;10279549;28;88150;-64
2024/01/13 03:40:48;;;;;;;;;;;16.30;54.50;;;;;;10285337;28;89083;-64
2024/01/13 03:45:50;;;;;;;;;;;16.20;54.60;;;;;;10279754;28;90056;-63
2024/01/13 03:50:52;;;;;;;;;;;16.20;54.60;;;;;;10283514;28;88231;-64
2024/01/13 03:55:54;;;;;;;;;;;16.10;54.80;;;;;;10277570;28;88270;-72
2024/01/13 04:00:57;;;;;;;;;;;16.10;54.70;;;;;;10284344;28;89030;-63
2024/01/13 04:06:02;;;;;;;;;;;16.10;55.00;;;;;;10291261;28;90759;-63
2024/01/13 04:11:10;;;;;;;;;;;16.20;55.00;;;;;;10273685;28;91018;-63
2024/01/13 04:16:12;;;;;;;;;;;16.30;54.70;;;;;;10280221;28;89268;-62
2024/01/13 04:21:14;;;;;;;;;;;16.40;54.40;;;;;;10277946;28;88792;-63
2024/01/13 04:26:24;;;;;;;;;;;16.60;54.00;;;;;;10274272;28;90101;-63
2024/01/13 04:31:26;;;;;;;;;;;16.70;53.70;;;;;;10268414;28;89359;-62
2024/01/13 04:36:27;;;;;;;;;;;16.70;53.60;;;;;;10283579;28;90080;-63
2024/01/13 04:41:29;;;;;;;;;;;16.70;53.50;;;;;;10259573;28;89299;-64
2024/01/13 04:46:31;;;;;;;;;;;16.60;53.50;;;;;;10287594;28;90307;-63
2024/01/13 04:51:33;;;;;;;;;;;16.60;53.50;;;;;;10289143;28;89754;-63
2024/01/13 04:56:35;;;;;;;;;;;16.60;53.60;;;;;;10259454;28;90772;-64
2024/01/13 05:01:37;;;;;;;;;;;16.50;53.70;;;;;;10269083;28;89692;-64
2024/01/13 05:06:39;;;;;;;;;;;16.50;53.80;;;;;;10268597;28;89529;-64
2024/01/13 05:11:41;;;;;;;;;;;16.40;53.90;;;;;;10280854;28;90342;-63
2024/01/13 05:16:42;;;;;;;;;;;16.30;54.00;;;;;;10280334;28;89832;-63
2024/01/13 05:21:44;;;;;;;;;;;16.30;54.20;;;;;;10280734;28;89341;-63
2024/01/13 05:26:46;;;;;;;;;;;16.30;54.20;;;;;;10284244;28;89520;-63
2024/01/13 05:31:48;;;;;;;;;;;16.20;54.20;;;;;;10288033;28;88636;-63
2024/01/13 05:36:50;;;;;;;;;;;16.10;54.20;;;;;;10278108;28;90001;-62
2024/01/13 05:41:52;;;;;;;;;;;16.10;54.40;;;;;;10277694;28;89426;-62
2024/01/13 05:46:54;;;;;;;;;;;16.20;54.50;;;;;;10282375;28;90825;-64
2024/01/13 05:51:56;;;;;;;;;;;16.50;54.30;;;;;;10272766;28;89951;-63
2024/01/13 05:56:58;;;;;;;;;;;16.80;53.80;;;;;;10274766;28;89117;-63
2024/01/13 06:02:00;;;;;;;;;;;17.10;53.10;;;;;;10270692;28;88754;-62
2024/01/13 06:07:04;;;;;;;;;;;17.40;52.40;;;;;;10278381;28;90157;-63
2024/01/13 06:12:07;;;;;;;;;;;17.50;52.20;;;;;;10285942;28;89601;-63
2024/01/13 06:17:09;;;;;;;;;;;17.70;51.80;;;;;;10289095;28;89013;-63
2024/01/13 06:22:10;;;;;;;;;;;17.80;51.60;;;;;;10296990;28;88300;-63
2024/01/13 06:27:13;;;;;;;;;;;17.80;51.60;;;;;;10290078;28;89660;-63
2024/01/13 06:32:15;;;;;;;;;;;17.70;51.70;;;;;;10284566;28;89790;-63
2024/01/13 06:37:16;;;;;;;;;;;17.70;52.00;;;;;;10297527;28;89854;-63
2024/01/13 06:42:19;;;;;;;;;;;17.60;52.10;;;;;;10265629;28;88888;-63
2024/01/13 06:47:21;;;;;;;;;;;17.70;52.20;;;;;;10278454;28;89768;-64
2024/01/13 06:52:24;;;;;;;;;;;17.90;52.00;;;;;;10290610;28;90046;-64
2024/01/13 06:57:26;;;;;;;;;;;18.20;51.70;;;;;;10295229;28;88258;-64
2024/01/13 07:02:28;;;;;;;;;;;18.40;51.40;;;;;;10285048;28;89480;-63
2024/01/13 07:07:31;;;;;;;;;;;18.60;51.00;;;;;;10291958;28;89368;-64
2024/01/13 07:12:33;;;;;;;;;;;18.70;50.80;;;;;;10268116;28;88846;-63
2024/01/13 07:17:35;;;;;;;;;;;18.80;50.70;;;;;;10275731;28;89600;-63
2024/01/13 07:22:37;;;;;;;;;;;18.90;50.40;;;;;;10295456;28;88945;-64
2024/01/13 07:27:38;;;;;;;;;;;19.00;50.20;;;;;;10285621;28;90901;-65
2024/01/13 07:32:40;;;;;;;;;;;19.10;50.10;;;;;;10287771;28;90014;-65
2024/01/13 07:37:43;;;;;;;;;;;19.00;50.20;;;;;;10280135;28;89645;-63
2024/01/13 07:42:45;;;;;;;;;;;18.90;50.40;;;;;;10284912;28;89696;-62
2024/01/13 07:47:46;;;;;;;;;;;18.90;50.60;;;;;;10293043;28;90017;-63
2024/01/13 07:52:50;;;;;;;;;;;19.00;50.50;;;;;;10285686;28;88698;-64
2024/01/13 07:57:53;;;;;;;;;;;19.10;50.50;;;;;;10280208;28;89332;-63
2024/01/13 08:02:55;;;;;;;;;;;19.00;50.60;;;;;;10278353;28;89951;-64
2024/01/13 08:08:01;;;;;;;;;;;18.90;51.00;;;;;;10278415;28;109529;-64
2024/01/13 08:13:04;;;;;;;;;;;18.90;51.30;;;;;;10271260;28;89312;-64
2024/01/13 08:18:05;;;;;;;;;;;18.90;51.30;;;;;;10285014;28;90362;-64
2024/01/13 08:23:08;;;;;;;;;;;19.00;51.20;;;;;;10286839;28;90044;-63
2024/01/13 08:28:10;;;;;;;;;;;18.90;51.20;;;;;;10297610;28;89321;-63
2024/01/13 08:33:13;;;;;;;;;;;18.80;51.50;;;;;;10291072;28;89409;-63
2024/01/13 08:38:15;;;;;;;;;;;18.80;51.70;;;;;;10305238;28;89957;-64
2024/01/13 08:43:17;;;;;;;;;;;18.90;51.70;;;;;;10281083;28;90023;-63
2024/01/13 08:48:19;;;;;;;;;;;19.00;51.40;;;;;;10271458;28;90047;-63
2024/01/13 08:53:21;;;;;;;;;;;19.10;51.40;;;;;;10276858;28;87701;-63
2024/01/13 08:58:23;;;;;;;;;;;19.00;51.50;;;;;;10289707;28;90128;-64
2024/01/13 09:03:28;;;;;;;;;;;18.90;51.80;;;;;;10282953;28;89940;-63
2024/01/13 09:08:30;;;;;;;;;;;18.90;51.80;;;;;;10276404;28;90698;-63
2024/01/13 09:13:32;;;;;;;;;;;19.00;51.70;;;;;;10279793;28;89789;-63
2024/01/13 09:18:34;;;;;;;;;;;19.00;51.70;;;;;;10282015;28;89256;-64
2024/01/13 09:23:36;;;;;;;;;;;18.90;52.80;;;;;;10279152;28;89973;-63
2024/01/13 09:28:38;;;;;;;;;;;18.80;53.40;;;;;;10288926;28;89285;-64
2024/01/13 09:33:40;;;;;;;;;;;18.70;54.90;;;;;;10288554;28;89567;-63
2024/01/13 09:38:42;;;;;;;;;;;18.80;55.10;;;;;;10292201;28;89027;-63
2024/01/13 09:43:50;;;;;;;;;;;18.90;55.30;;;;;;10293888;28;88908;-63
2024/01/13 09:48:53;;;;;;;;;;;18.90;55.70;;;;;;10272475;28;90209;-63
2024/01/13 09:53:58;;;;;;;;;;;18.80;55.10;;;;;;10278641;28;90713;-61
2024/01/13 09:59:00;;;;;;;;;;;18.80;55.30;;;;;;10301714;28;89463;-63
2024/01/13 10:04:02;;;;;;;;;;;18.60;55.60;;;;;;10282839;28;89987;-63
2024/01/13 10:09:04;;;;;;;;;;;18.60;56.00;;;;;;10279593;28;89491;-64
2024/01/13 10:14:26;;;;;;;;;;;18.60;56.10;;;;;;10278586;28;88936;-64
2024/01/13 10:19:28;;;;;;;;;;;18.60;56.30;;;;;;10275080;28;88947;-64
2024/01/13 10:24:31;;;;;;;;;;;18.50;56.30;;;;;;10277779;28;89183;-64
2024/01/13 10:29:34;;;;;;;;;;;18.40;56.30;;;;;;10296725;28;89369;-63
2024/01/13 10:34:37;;;;;;;;;;;18.40;56.50;;;;;;10278984;28;91253;-63
2024/01/13 10:39:41;;;;;;;;;;;18.40;56.60;;;;;;10281790;28;90005;-63
2024/01/13 10:44:45;;;;;;;;;;;18.40;56.80;;;;;;10285986;28;90205;-63
2024/01/13 10:49:50;;;;;;;;;;;18.30;57.00;;;;;;10299294;28;90573;-64
2024/01/13 10:54:53;;;;;;;;;;;18.30;56.70;;;;;;10283166;28;88970;-64
2024/01/13 10:59:57;;;;;;;;;;;18.30;56.70;;;;;;10278595;28;90085;-63
2024/01/13 11:04:59;;;;;;;;;;;18.30;56.90;;;;;;10283869;28;90058;-63
2024/01/13 11:10:04;;;;;;;;;;;18.20;56.90;;;;;;10282093;28;89774;-64
2024/01/13 11:15:14;;;;;;;;;;;18.20;57.00;;;;;;10282313;28;89075;-62
2024/01/13 11:20:18;;;;;;;;;;;18.20;57.20;;;;;;10284836;28;88643;-63
2024/01/13 11:25:24;;;;;;;;;;;18.20;57.10;;;;;;10278316;28;89103;-63
2024/01/13 11:30:39;;;;;;;;;;;18.20;57.10;;;;;;10286463;28;90071;-63
2024/01/13 11:35:50;;;;;;;;;;;18.10;57.10;;;;;;10286395;28;90279;-63
2024/01/13 11:40:54;;;;;;;;;;;18.10;57.30;;;;;;10284683;28;90785;-64
2024/01/13 11:45:55;;;;;;;;;;;18.20;57.40;;;;;;10302510;28;89989;-64
2024/01/13 11:51:08;;;;;;;;;;;18.10;57.50;;;;;;10288547;28;90077;-71
2024/01/13 11:56:11;;;;;;;;;;;18.10;58.50;;;;;;10296218;28;90440;-65
2024/01/13 12:01:17;;;;;;;;;;;18.10;59.50;;;;;;10294540;28;89961;-63
2024/01/13 12:06:23;;;;;;;;;;;18.20;61.00;;;;;;10288152;28;89066;-63
2024/01/13 12:11:25;;;;;;;;;;;18.30;62.20;;;;;;10270951;28;89546;-65
2024/01/13 12:16:38;;;;;;;;;;;18.50;63.00;;;;;;10278585;28;89310;-65
2024/01/13 12:21:40;;;;;;;;;;;18.60;62.50;;;;;;10263216;28;89782;-64
2024/01/13 12:26:45;;;;;;;;;;;18.60;62.20;;;;;;10261429;28;90036;-64
2024/01/13 12:31:47;;;;;;;;;;;18.60;61.70;;;;;;10271724;28;90840;-65
2024/01/13 12:36:49;;;;;;;;;;;18.50;61.40;;;;;;10261052;28;89654;-64
2024/01/13 12:41:51;;;;;;;;;;;18.40;61.60;;;;;;10260481;28;90144;-64
2024/01/13 12:46:57;;;;;;;;;;;18.40;61.60;;;;;;10266613;28;90525;-64
2024/01/13 12:52:00;;;;;;;;;;;18.30;61.50;;;;;;10264372;28;90168;-63
2024/01/13 12:57:02;;;;;;;;;;;18.20;61.20;;;;;;10261450;28;90053;-64
2024/01/13 13:02:05;;;;;;;;;;;18.10;60.60;;;;;;10266726;28;88684;-65
2024/01/13 13:07:07;;;;;;;;;;;18.00;60.30;;;;;;10260273;28;88169;-64
2024/01/13 13:12:10;;;;;;;;;;;18.00;60.10;;;;;;10258815;28;90021;-65
2024/01/13 13:17:12;;;;;;;;;;;17.90;60.00;;;;;;10267340;28;90432;-66
2024/01/13 13:22:13;;;;;;;;;;;17.80;59.70;;;;;;10279352;28;90629;-64
2024/01/13 13:27:15;;;;;;;;;;;17.70;59.70;;;;;;10269221;28;89362;-64
2024/01/13 13:32:17;;;;;;;;;;;17.70;59.50;;;;;;10282655;28;89056;-64
2024/01/13 13:37:22;;;;;;;;;;;17.60;59.20;;;;;;10290217;28;90035;-64
2024/01/13 13:42:24;;;;;;;;;;;17.50;59.10;;;;;;10288086;28;89032;-63
2024/01/13 13:47:26;;;;;;;;;;;17.50;59.10;;;;;;10288307;28;89330;-64
2024/01/13 13:52:28;;;;;;;;;;;17.40;58.90;;;;;;10294079;28;89162;-64
2024/01/13 13:57:31;;;;;;;;;;;17.30;58.50;;;;;;10323670;28;89367;-63
2024/01/13 14:02:32;;;;;;;;;;;17.20;58.20;;;;;;10332112;28;89368;-62
2024/01/13 14:07:34;;;;;;;;;;;17.20;58.00;;;;;;10294859;28;89279;-64
2024/01/13 14:12:36;;;;;;;;;;;17.20;57.80;;;;;;10276489;28;90709;-64
2024/01/13 14:17:38;;;;;;;;;;;17.10;57.50;;;;;;10293591;28;91265;-63
2024/01/13 14:22:40;;;;;;;;;;;17.10;57.30;;;;;;10282487;28;89667;-64
2024/01/13 14:27:43;;;;;;;;;;;17.00;57.10;;;;;;10287050;28;89435;-63
2024/01/13 14:32:45;;;;;;;;;;;17.00;57.20;;;;;;10308819;28;89545;-64
2024/01/13 14:37:51;;;;;;;;;;;16.90;57.40;;;;;;10289511;28;89063;-64
2024/01/13 14:42:54;;;;;;;;;;;16.90;57.80;;;;;;10284212;28;90200;-65
2024/01/13 14:47:56;;;;;;;;;;;16.80;57.70;;;;;;10288755;28;89291;-64
2024/01/13 14:52:58;;;;;;;;;;;16.80;57.50;;;;;;10285943;28;90293;-62
2024/01/13 14:58:00;;;;;;;;;;;16.70;57.20;;;;;;10291401;28;89835;-63
2024/01/13 15:03:01;;;;;;;;;;;16.70;56.90;;;;;;10281280;28;90715;-64
2024/01/13 15:08:03;;;;;;;;;;;16.70;56.70;;;;;;10277833;28;89448;-63
2024/01/13 15:13:05;;;;;;;;;;;16.70;56.60;;;;;;10273889;28;90217;-63
2024/01/13 15:18:07;;;;;;;;;;;16.60;56.30;;;;;;10283341;28;89737;-63
2024/01/13 15:23:09;;;;;;;;;;;16.60;56.60;;;;;;10285766;28;89887;-63
2024/01/13 15:28:12;;;;;;;;;;;16.50;56.70;;;;;;10281610;28;89266;-63
2024/01/13 15:33:14;;;;;;;;;;;16.50;56.80;;;;;;10286351;28;89992;-63
2024/01/13 15:38:19;;;;;;;;;;;16.40;56.90;;;;;;10292975;28;89867;-63
2024/01/13 15:43:21;;;;;;;;;;;16.40;57.00;;;;;;10282758;28;90046;-63
2024/01/13 15:48:23;;;;;;;;;;;16.30;57.00;;;;;;10273088;28;89113;-64
2024/01/13 15:53:26;;;;;;;;;;;16.30;57.10;;;;;;10280008;28;90094;-64
2024/01/13 15:58:28;;;;;;;;;;;16.30;57.20;;;;;;10283449;28;89063;-63
2024/01/13 16:03:30;;;;;;;;;;;16.30;57.20;;;;;;10283371;28;89799;-64
2024/01/13 16:08:32;;;;;;;;;;;16.20;57.40;;;;;;10281657;28;89255;-64
2024/01/13 16:13:34;;;;;;;;;;;16.30;57.30;;;;;;10275259;28;90002;-64
2024/01/13 16:18:39;;;;;;;;;;;16.30;57.10;;;;;;10284402;28;90041;-63
2024/01/13 16:23:41;;;;;;;;;;;16.60;56.80;;;;;;10287116;28;90053;-63
2024/01/13 16:28:43;;;;;;;;;;;16.90;56.30;;;;;;10291020;28;89057;-63
2024/01/13 16:33:45;;;;;;;;;;;17.20;55.80;;;;;;10270513;28;90567;-63
2024/01/13 16:38:47;;;;;;;;;;;17.50;55.50;;;;;;10269454;28;88867;-64
2024/01/13 16:43:49;;;;;;;;;;;17.60;54.90;;;;;;10280481;28;89745;-63
2024/01/13 16:48:51;;;;;;;;;;;17.90;54.60;;;;;;10280206;28;90113;-64
2024/01/13 16:53:54;;;;;;;;;;;18.00;54.30;;;;;;10283118;28;89067;-64
2024/01/13 16:58:56;;;;;;;;;;;18.20;54.00;;;;;;10277966;28;90196;-63
2024/01/13 17:03:57;;;;;;;;;;;18.30;53.70;;;;;;10279552;28;90126;-64
2024/01/13 17:09:00;;;;;;;;;;;18.40;53.50;;;;;;10281332;28;89251;-64
2024/01/13 17:14:02;;;;;;;;;;;18.40;53.50;;;;;;10278035;28;88337;-64
2024/01/13 17:19:04;;;;;;;;;;;18.30;53.50;;;;;;10292695;28;89459;-63
2024/01/13 17:24:06;;;;;;;;;;;18.20;53.70;;;;;;10292351;28;89317;-63
2024/01/13 17:29:08;;;;;;;;;;;18.30;53.80;;;;;;10293349;28;89250;-64
2024/01/13 17:34:09;;;;;;;;;;;18.40;53.70;;;;;;10289901;28;90714;-63
2024/01/13 17:39:12;;;;;;;;;;;18.60;53.50;;;;;;10284122;28;90020;-64
2024/01/13 17:44:13;;;;;;;;;;;18.70;53.30;;;;;;10296701;28;90159;-64
2024/01/13 17:49:15;;;;;;;;;;;18.70;53.00;;;;;;10284750;28;89503;-63
2024/01/13 17:54:17;;;;;;;;;;;18.70;53.00;;;;;;10279782;28;90350;-64
2024/01/13 17:59:20;;;;;;;;;;;18.60;53.10;;;;;;10287312;28;90351;-64
2024/01/13 18:04:21;;;;;;;;;;;18.60;53.10;;;;;;10286523;28;89845;-64
2024/01/13 18:09:24;;;;;;;;;;;18.70;53.00;;;;;;10291448;28;88110;-64
2024/01/13 18:14:26;;;;;;;;;;;18.80;52.90;;;;;;10280609;28;90603;-62
2024/01/13 18:19:29;;;;;;;;;;;18.80;52.80;;;;;;10284608;28;90029;-62
2024/01/13 18:24:31;;;;;;;;;;;18.70;52.70;;;;;;10285716;28;90931;-64
2024/01/13 18:29:33;;;;;;;;;;;18.70;52.90;;;;;;10277735;28;89096;-64
2024/01/13 18:34:38;;;;;;;;;;;18.70;52.90;;;;;;10276207;28;90438;-63
2024/01/13 18:39:40;;;;;;;;;;;18.80;52.90;;;;;;10278657;28;90418;-64
2024/01/13 18:44:44;;;;;;;;;;;18.90;52.70;;;;;;10285226;28;90089;-64
2024/01/13 18:49:46;;;;;;;;;;;18.90;52.60;;;;;;10279756;28;89194;-63
2024/01/13 18:54:49;;;;;;;;;;;18.90;52.70;;;;;;10280352;28;88739;-63
2024/01/13 18:59:51;;;;;;;;;;;18.80;52.80;;;;;;10284957;28;89305;-65
2024/01/13 19:04:53;;;;;;;;;;;18.80;52.80;;;;;;10286952;28;89785;-63
2024/01/13 19:09:55;;;;;;;;;;;18.90;52.80;;;;;;10284350;28;90252;-63
2024/01/13 19:14:57;;;;;;;;;;;18.90;52.80;;;;;;10273484;28;89341;-64
2024/01/13 19:19:59;;;;;;;;;;;18.80;52.70;;;;;;10278773;28;89015;-64
2024/01/13 19:25:01;;;;;;;;;;;18.80;52.90;;;;;;10284426;28;88781;-64
2024/01/13 19:30:03;;;;;;;;;;;18.70;52.80;;;;;;10268332;28;89321;-64
2024/01/13 19:35:05;;;;;;;;;;;18.80;52.80;;;;;;10290609;28;89919;-64
2024/01/13 19:40:07;;;;;;;;;;;18.90;52.70;;;;;;10301700;28;90184;-63
2024/01/13 19:45:10;;;;;;;;;;;18.90;52.50;;;;;;10282584;28;89927;-64
2024/01/13 19:50:12;;;;;;;;;;;18.90;52.50;;;;;;10277102;28;89230;-64
2024/01/13 19:55:15;;;;;;;;;;;18.80;52.60;;;;;;10279531;28;90001;-63
2024/01/13 20:00:17;;;;;;;;;;;18.80;52.60;;;;;;10284047;28;90216;-63
2024/01/13 20:05:19;;;;;;;;;;;18.90;53.00;;;;;;10283862;28;89462;-64
2024/01/13 20:10:22;;;;;;;;;;;19.00;53.00;;;;;;10283384;28;89019;-63
2024/01/13 20:15:24;;;;;;;;;;;18.90;52.90;;;;;;10282078;28;88861;-62
2024/01/13 20:20:26;;;;;;;;;;;18.90;53.00;;;;;;10281844;28;90011;-63
2024/01/13 20:25:28;;;;;;;;;;;18.90;53.00;;;;;;10282720;28;89197;-63
2024/01/13 20:30:30;;;;;;;;;;;18.90;53.10;;;;;;10279116;28;89074;-63
2024/01/13 20:35:31;;;;;;;;;;;18.90;53.10;;;;;;10283129;28;90002;-63
2024/01/13 20:40:37;;;;;;;;;;;18.90;53.20;;;;;;10282756;28;89361;-63
2024/01/13 20:45:39;;;;;;;;;;;18.80;53.40;;;;;;10276745;28;89608;-65
2024/01/13 20:50:40;;;;;;;;;;;18.70;53.60;;;;;;10273013;28;90411;-64
2024/01/13 20:55:44;;;;;;;;;;;18.60;53.70;;;;;;10277726;28;89709;-63
2024/01/13 21:00:45;;;;;;;;;;;18.40;53.80;;;;;;10278419;28;89752;-63
2024/01/13 21:05:48;;;;;;;;;;;18.40;54.10;;;;;;10278233;28;91130;-63
2024/01/13 21:10:53;;;;;;;;;;;18.20;54.20;;;;;;10278649;28;89064;-63
2024/01/13 21:15:55;;;;;;;;;;;18.10;54.50;;;;;;10281280;28;89709;-63
2024/01/13 21:20:57;;;;;;;;;;;18.00;54.60;;;;;;10288527;28;89991;-63
2024/01/13 21:25:59;;;;;;;;;;;18.00;54.80;;;;;;10278644;28;89049;-65
2024/01/13 21:31:00;;;;;;;;;;;17.90;55.30;;;;;;10299625;28;88420;-65
2024/01/13 21:36:03;;;;;;;;;;;17.80;55.20;;;;;;10283511;28;89173;-65
2024/01/13 21:41:05;;;;;;;;;;;17.70;55.40;;;;;;10278441;28;90186;-64
2024/01/13 21:46:07;;;;;;;;;;;17.70;55.60;;;;;;10279015;28;90916;-64
2024/01/13 21:51:09;;;;;;;;;;;17.50;55.70;;;;;;10280415;28;89995;-64
2024/01/13 21:56:11;;;;;;;;;;;17.50;55.80;;;;;;10283750;28;90064;-64
2024/01/13 22:01:16;;;;;;;;;;;17.50;56.00;;;;;;10280894;28;90424;-64
2024/01/13 22:06:18;;;;;;;;;;;17.40;56.00;;;;;;10279901;28;90055;-64
2024/01/13 22:11:20;;;;;;;;;;;17.40;56.30;;;;;;10287524;28;89599;-64
2024/01/13 22:16:22;;;;;;;;;;;17.30;56.40;;;;;;10285042;28;89555;-63
2024/01/13 22:21:25;;;;;;;;;;;17.30;56.60;;;;;;10273247;28;88439;-64
2024/01/13 22:26:28;;;;;;;;;;;17.20;56.70;;;;;;10292981;28;90688;-63
2024/01/13 22:31:29;;;;;;;;;;;17.20;56.70;;;;;;10287618;28;89164;-65
2024/01/13 22:36:31;;;;;;;;;;;17.10;56.70;;;;;;10285638;28;89638;-64
2024/01/13 22:41:33;;;;;;;;;;;17.10;56.80;;;;;;10286553;28;89118;-64
2024/01/13 22:46:35;;;;;;;;;;;17.00;56.70;;;;;;10285618;28;89015;-64
2024/01/13 22:51:37;;;;;;;;;;;17.00;56.80;;;;;;10280899;28;90380;-64
2024/01/13 22:56:41;;;;;;;;;;;17.00;57.00;;;;;;10286072;28;89685;-64
2024/01/13 23:01:43;;;;;;;;;;;16.90;57.00;;;;;;10284980;28;90142;-64
2024/01/13 23:06:45;;;;;;;;;;;16.90;57.20;;;;;;10286881;28;90003;-64
2024/01/13 23:11:48;;;;;;;;;;;16.90;57.00;;;;;;10273313;28;89285;-64
2024/01/13 23:16:50;;;;;;;;;;;16.80;57.30;;;;;;10288562;28;89202;-64
2024/01/13 23:21:52;;;;;;;;;;;16.80;57.40;;;;;;10272875;28;89587;-64
2024/01/13 23:26:54;;;;;;;;;;;16.80;57.40;;;;;;10281640;28;91000;-64
2024/01/13 23:31:56;;;;;;;;;;;16.70;57.40;;;;;;10277337;28;89349;-64
2024/01/13 23:36:58;;;;;;;;;;;16.70;57.50;;;;;;10269407;28;90165;-64
2024/01/13 23:42:01;;;;;;;;;;;16.70;57.50;;;;;;10267032;28;89758;-64
2024/01/13 23:47:03;;;;;;;;;;;16.60;57.50;;;;;;10282420;28;89214;-63
2024/01/13 23:52:05;;;;;;;;;;;16.60;57.60;;;;;;10264371;28;89823;-64
2024/01/13 23:57:07;;;;;;;;;;;16.50;57.50;;;;;;10278113;28;89328;-64
